Time;durP1;ratioP1;P1;durP2;ratioP2;P2;SDS_P1;SDS_P2;PMS_P1;PMS_P2;Temp;Humidity;BMP_temperature;BMP_pressure;BME280_temperature;BME280_humidity;BME280_pressure;Samples;Min_cycle;Max_cycle;Signal;HPM_P1;HPM_P2
2022/12/06 00:02:03;;;;;;;;;46.25;38.25;;;;;5.43;65.24;101300.31;5015731;28;46120;-60
2022/12/06 00:04:29;;;;;;;;;45.00;36.25;;;;;5.48;65.32;101300.28;5016087;28;45518;-59
2022/12/06 00:06:54;;;;;;;;;40.50;36.75;;;;;5.51;65.40;101300.28;4998231;28;45460;-59
2022/12/06 00:09:26;;;;;;;;;43.50;36.75;;;;;5.52;65.15;101295.06;5015707;28;45560;-59
2022/12/06 00:11:52;;;;;;;;;40.75;35.50;;;;;5.52;65.21;101289.84;5015560;28;45457;-59
2022/12/06 00:14:18;;;;;;;;;35.50;34.00;;;;;5.53;64.98;101285.47;5015704;28;45551;-59
2022/12/06 00:16:43;;;;;;;;;39.75;38.00;;;;;5.56;65.30;101287.22;5016500;28;45587;-59
2022/12/06 00:19:12;;;;;;;;;40.25;36.00;;;;;5.58;65.44;101288.94;4997907;28;45607;-59
2022/12/06 00:21:38;;;;;;;;;43.25;35.75;;;;;5.60;65.38;101283.72;4992825;28;47100;-59
2022/12/06 00:24:21;;;;;;;;;37.00;32.50;;;;;5.60;64.90;101281.97;5014216;28;45546;-59
2022/12/06 00:26:48;;;;;;;;;33.75;30.75;;;;;5.61;64.93;101285.44;5015783;28;45494;-59
2022/12/06 00:29:20;;;;;;;;;37.50;37.00;;;;;5.57;64.86;101275.91;5001397;28;45376;-59
2022/12/06 00:31:46;;;;;;;;;43.25;37.50;;;;;5.57;65.09;101278.53;5015638;28;45510;-59
2022/12/06 00:34:12;;;;;;;;;39.00;35.25;;;;;5.58;65.36;101270.69;5015352;28;45446;-59
2022/12/06 00:36:39;;;;;;;;;44.50;38.00;;;;;5.58;65.27;101264.59;5014952;28;45571;-59
2022/12/06 00:39:08;;;;;;;;;46.50;38.75;;;;;5.58;65.36;101269.81;5015694;28;45453;-59
2022/12/06 00:41:34;;;;;;;;;37.75;33.75;;;;;5.60;65.24;101268.06;5015401;28;46157;-59
2022/12/06 00:43:59;;;;;;;;;40.75;34.75;;;;;5.60;65.04;101265.47;5015388;28;45509;-59
2022/12/06 00:46:28;;;;;;;;;44.25;39.50;;;;;5.60;65.96;101270.69;5015511;28;45424;-59
2022/12/06 00:48:55;;;;;;;;;37.00;33.50;;;;;5.63;65.26;101270.66;5015742;28;45531;-59
2022/12/06 00:51:22;;;;;;;;;41.75;37.00;;;;;5.61;64.99;101267.19;5015248;28;46164;-59
2022/12/06 00:53:48;;;;;;;;;34.00;33.25;;;;;5.60;65.63;101260.25;5015216;28;45444;-59
2022/12/06 00:56:13;;;;;;;;;38.50;32.25;;;;;5.60;65.17;101260.25;5015355;28;45806;-59
2022/12/06 00:58:39;;;;;;;;;40.50;34.25;;;;;5.62;65.15;101266.34;5015141;28;45428;-60
2022/12/06 01:01:08;;;;;;;;;45.25;37.00;;;;;5.65;66.04;101259.34;5015325;28;46226;-59
2022/12/06 01:03:34;;;;;;;;;46.25;38.50;;;;;5.69;65.65;101258.44;5015067;28;45506;-59
2022/12/06 01:06:04;;;;;;;;;46.00;38.75;;;;;5.69;66.03;101255.84;5014955;28;45500;-59
2022/12/06 01:08:30;;;;;;;;;45.75;39.50;;;;;5.71;65.91;101264.53;5014804;28;45597;-59
2022/12/06 01:10:55;;;;;;;;;44.75;37.75;;;;;5.69;65.65;101255.84;5015159;28;46075;-59
2022/12/06 01:13:21;;;;;;;;;38.50;32.50;;;;;5.75;65.83;101265.41;5014558;28;45971;-59
2022/12/06 01:15:46;;;;;;;;;49.00;37.00;;;;;5.71;65.99;101258.44;5014398;28;45502;-59
2022/12/06 01:18:11;;;;;;;;;46.75;41.75;;;;;5.75;65.61;101265.41;5015583;28;45571;-60
2022/12/06 01:20:37;;;;;;;;;42.00;38.25;;;;;5.73;65.91;101260.19;5014362;28;49557;-59
2022/12/06 01:23:02;;;;;;;;;51.50;41.25;;;;;5.73;65.61;101259.31;4995278;28;45439;-59
2022/12/06 01:25:27;;;;;;;;;44.00;39.50;;;;;5.75;65.95;101266.28;4994853;28;45540;-59
2022/12/06 01:27:53;;;;;;;;;41.50;38.00;;;;;5.77;65.86;101261.03;4994861;28;45428;-59
2022/12/06 01:30:18;;;;;;;;;40.75;37.50;;;;;5.77;66.09;101261.03;4994266;28;57720;-59
2022/12/06 01:32:43;;;;;;;;;42.00;37.00;;;;;5.78;65.69;101260.16;4994789;28;45485;-59
2022/12/06 01:35:09;;;;;;;;;42.25;36.50;;;;;5.81;66.00;101259.28;4994232;28;56208;-59
2022/12/06 01:37:34;;;;;;;;;45.50;39.50;;;;;5.82;65.86;101255.78;4994863;28;45575;-59
2022/12/06 01:39:59;;;;;;;;;42.25;38.25;;;;;5.81;65.74;101254.94;4994417;28;45997;-59
2022/12/06 01:42:25;;;;;;;;;41.25;37.75;;;;;5.81;65.81;101260.16;4994752;28;45468;-59
2022/12/06 01:44:56;;;;;;;;;49.00;40.75;;;;;5.82;65.86;101258.41;4994826;28;45436;-59
2022/12/06 01:47:28;;;;;;;;;48.75;40.25;;;;;5.81;66.38;101257.53;4994011;28;45739;-59
2022/12/06 01:50:05;;;;;;;;;40.25;35.50;;;;;5.81;66.40;101254.94;4994205;28;45472;-59
2022/12/06 01:52:40;;;;;;;;;43.00;36.50;;;;;5.80;65.70;101260.13;4994258;28;45429;-59
2022/12/06 01:55:09;;;;;;;;;48.25;36.25;;;;;5.76;66.04;101268.00;4994610;28;45495;-59
2022/12/06 01:57:35;;;;;;;;;41.50;35.75;;;;;5.78;66.54;101265.38;4994265;28;45630;-59
2022/12/06 02:00:00;;;;;;;;;43.00;36.50;;;;;5.76;65.96;101257.56;4994372;28;45481;-59
2022/12/06 02:02:26;;;;;;;;;32.25;28.00;;;;;5.78;66.59;101256.66;4994202;28;45563;-59
2022/12/06 02:04:52;;;;;;;;;29.75;28.50;;;;;5.79;66.43;101261.88;4994651;28;45504;-59
2022/12/06 02:07:19;;;;;;;;;38.75;37.00;;;;;5.78;66.09;101261.88;4994627;28;45517;-59
2022/12/06 02:09:45;;;;;;;;;39.00;34.75;;;;;5.77;66.21;101271.47;4993748;28;45488;-58
2022/12/06 02:12:14;;;;;;;;;38.25;34.25;;;;;5.75;66.61;101268.00;4994140;28;45523;-59
2022/12/06 02:14:43;;;;;;;;;40.50;36.75;;;;;5.74;66.42;101266.25;4994228;28;45640;-59
2022/12/06 02:17:22;;;;;;;;;39.50;37.50;;;;;5.72;66.75;101274.13;4994895;28;45437;-59
2022/12/06 02:19:50;;;;;;;;;40.25;35.75;;;;;5.71;66.45;101268.88;4994090;28;46246;-59
2022/12/06 02:22:21;;;;;;;;;45.25;38.75;;;;;5.69;66.87;101268.88;4994199;28;45503;-59
2022/12/06 02:24:55;;;;;;;;;43.50;36.00;;;;;5.68;66.64;101269.78;4994214;28;45481;-59
2022/12/06 02:27:33;;;;;;;;;38.50;34.00;;;;;5.66;66.85;101274.13;4994341;28;45547;-59
2022/12/06 02:30:08;;;;;;;;;39.75;36.00;;;;;5.66;66.99;101273.25;4993595;28;47433;-59
2022/12/06 02:32:39;;;;;;;;;39.00;36.50;;;;;5.67;66.86;101268.03;4994031;28;45468;-59
2022/12/06 02:35:25;;;;;;;;;44.00;39.00;;;;;5.69;66.75;101268.88;4976269;28;45583;-59
2022/12/06 02:37:57;;;;;;;;;45.00;39.25;;;;;5.68;66.83;101274.13;4993947;28;45461;-59
2022/12/06 02:40:31;;;;;;;;;38.25;34.50;;;;;5.67;66.98;101270.66;4993807;28;45479;-59
2022/12/06 02:43:06;;;;;;;;;43.75;38.50;;;;;5.64;67.14;101262.84;4993815;28;45512;-59
2022/12/06 02:45:39;;;;;;;;;35.75;33.75;;;;;5.69;67.50;101268.88;4976153;28;45544;-59
2022/12/06 02:48:08;;;;;;;;;35.75;33.00;;;;;5.71;67.13;101264.53;4994020;28;45516;-59
2022/12/06 02:50:39;;;;;;;;;38.50;33.75;;;;;5.72;67.22;101254.97;4993503;28;46097;-59
2022/12/06 02:53:08;;;;;;;;;36.75;31.50;;;;;5.74;67.27;101261.91;4993655;28;45517;-59
2022/12/06 02:55:34;;;;;;;;;32.50;29.25;;;;;5.74;67.16;101259.28;4993472;28;45511;-59
2022/12/06 02:58:00;;;;;;;;;33.75;28.50;;;;;5.76;66.91;101262.78;4993808;28;45602;-59
2022/12/06 03:00:41;;;;;;;;;35.75;31.25;;;;;5.71;67.07;101256.69;4995735;28;45462;-59
2022/12/06 03:03:15;;;;;;;;;33.00;29.50;;;;;5.70;67.42;101262.81;4997307;28;45465;-59
2022/12/06 03:06:00;;;;;;;;;39.00;32.75;;;;;5.70;67.16;101264.56;4997141;28;45515;-59
2022/12/06 03:08:57;;;;;;;;;36.75;32.25;;;;;5.69;67.11;101263.66;4965918;28;45705;-59
2022/12/06 03:11:28;;;;;;;;;37.00;29.00;;;;;5.67;67.63;101265.44;4996835;28;46281;-59
2022/12/06 03:13:58;;;;;;;;;37.75;33.25;;;;;5.72;67.77;101265.41;4979212;28;45479;-59
2022/12/06 03:16:44;;;;;;;;;36.50;32.25;;;;;5.72;67.94;101268.00;4996929;28;45493;-59
2022/12/06 03:19:21;;;;;;;;;11.00;8.25;;;;;5.70;67.73;101260.19;4997030;28;45654;-59
2022/12/06 03:22:15;;;;;;;;;28.75;27.25;;;;;5.74;67.66;101263.66;4995885;28;46694;-59
2022/12/06 03:24:42;;;;;;;;;34.50;33.00;;;;;5.74;67.78;101271.47;4997654;28;45563;-59
2022/12/06 03:27:14;;;;;;;;;32.50;30.25;;;;;5.74;67.54;101268.88;4996906;28;45437;-59
2022/12/06 03:29:46;;;;;;;;;33.75;31.50;;;;;5.75;67.74;101268.00;4996479;28;45480;-59
2022/12/06 03:32:16;;;;;;;;;32.00;30.50;;;;;5.78;67.68;101264.50;4996571;28;46228;-59
2022/12/06 03:34:46;;;;;;;;;28.00;25.25;;;;;5.78;67.84;101259.28;4996644;28;45517;-59
2022/12/06 03:37:16;;;;;;;;;35.50;32.25;;;;;5.80;67.81;101261.00;4996688;28;45490;-59
2022/12/06 03:40:15;;;;;;;;;38.75;31.25;;;;;5.82;67.88;101263.63;4996718;28;45452;-59
2022/12/06 03:42:41;;;;;;;;;34.25;31.25;;;;;5.81;68.16;101269.72;4996443;28;45510;-59
2022/12/06 03:45:10;;;;;;;;;32.25;31.75;;;;;5.80;68.02;101263.59;4996450;28;45433;-59
2022/12/06 03:47:44;;;;;;;;;28.50;28.00;;;;;5.79;67.82;101261.88;4996617;28;45506;-59
2022/12/06 03:50:16;;;;;;;;;38.75;34.75;;;;;5.81;68.18;101257.53;4996759;28;45536;-59
2022/12/06 03:52:41;;;;;;;;;40.00;33.00;;;;;5.84;68.05;101262.72;4996264;28;45531;-59
2022/12/06 03:55:08;;;;;;;;;35.75;28.75;;;;;5.86;68.02;101254.91;4996365;28;45535;-59
2022/12/06 03:57:34;;;;;;;;;43.00;34.00;;;;;5.85;68.42;101250.53;4996200;28;45512;-59
2022/12/06 03:59:59;;;;;;;;;43.25;34.50;;;;;5.83;68.73;101253.19;4996279;28;45442;-59
2022/12/06 04:02:24;;;;;;;;;38.50;36.25;;;;;5.86;68.43;101261.00;4995936;28;45512;-59
2022/12/06 04:04:50;;;;;;;;;40.25;35.00;;;;;5.86;68.36;101266.22;4996347;28;45520;-59
2022/12/06 04:07:20;;;;;;;;;28.50;27.75;;;;;5.88;68.54;101268.81;4996199;28;45437;-59
2022/12/06 04:09:55;;;;;;;;;37.25;33.75;;;;;5.86;68.37;101267.97;4996256;28;45430;-59
2022/12/06 04:15:06;;;;;;;;;44.00;37.00;;;;;5.82;68.22;101264.47;4996122;28;45580;-59
2022/12/06 04:20:15;;;;;;;;;44.00;37.00;;;;;5.76;68.76;101267.13;4996086;28;45467;-59
2022/12/06 04:25:25;;;;;;;;;36.50;36.25;;;;;5.71;68.97;101268.88;4995902;28;45574;-59
2022/12/06 04:38:46;;;;;;;;;40.50;37.00;;;;;5.74;69.36;101261.91;4995833;28;45520;-59
2022/12/06 04:43:40;;;;;;;;;44.50;38.75;;;;;5.77;69.53;101255.81;4995705;28;45416;-59
2022/12/06 04:44:03;;;;;;;;;48.00;39.50;;;;;5.79;69.18;101259.28;4987505;28;45895;-59
2022/12/06 04:46:29;;;;;;;;;46.00;40.50;;;;;5.80;69.41;101254.91;4995688;28;45594;-59
2022/12/06 04:48:54;;;;;;;;;38.75;37.00;;;;;5.81;69.14;101249.72;4995769;28;45471;-59
2022/12/06 04:51:20;;;;;;;;;44.00;37.25;;;;;5.74;68.93;101234.94;4996125;28;45453;-59
2022/12/06 04:53:46;;;;;;;;;41.25;39.00;;;;;5.80;69.29;101247.09;4995836;28;46398;-59
2022/12/06 04:56:11;;;;;;;;;46.25;39.00;;;;;5.81;69.32;101248.84;4996045;28;45574;-58
2022/12/06 04:58:36;;;;;;;;;48.25;40.00;;;;;5.81;69.43;101251.47;4996099;28;45480;-59
2022/12/06 05:01:02;;;;;;;;;47.25;40.25;;;;;5.82;69.30;101246.22;4992824;28;50714;-59
2022/12/06 05:03:28;;;;;;;;;43.25;36.00;;;;;5.83;69.92;101239.25;4995982;28;45471;-59
2022/12/06 05:05:53;;;;;;;;;52.75;40.50;;;;;5.84;69.57;101244.47;4995830;28;45440;-59
2022/12/06 05:08:18;;;;;;;;;49.75;43.25;;;;;5.85;69.18;101237.50;4976917;28;45556;-59
2022/12/06 05:10:48;;;;;;;;;50.75;41.50;;;;;5.85;69.02;101246.19;4996141;28;45448;-59
2022/12/06 05:13:18;;;;;;;;;42.25;39.75;;;;;5.84;69.42;101241.00;4995517;28;45489;-59
2022/12/06 05:15:57;;;;;;;;;50.50;40.00;;;;;5.81;69.26;101238.41;4995492;28;45559;-59
2022/12/06 05:18:23;;;;;;;;;37.00;32.00;;;;;5.82;69.48;101240.97;4992438;28;45525;-59
2022/12/06 05:20:48;;;;;;;;;49.50;41.75;;;;;5.83;69.49;101242.75;4995538;28;45629;-59
2022/12/06 05:23:14;;;;;;;;;44.50;39.25;;;;;5.83;69.56;101240.13;4995343;28;45797;-59
2022/12/06 05:25:40;;;;;;;;;45.75;39.50;;;;;5.80;69.40;101236.66;4995519;28;45539;-59
2022/12/06 05:28:06;;;;;;;;;48.75;40.75;;;;;5.82;69.68;101235.75;4995768;28;45570;-59
2022/12/06 05:30:31;;;;;;;;;51.00;40.50;;;;;5.76;69.71;101233.19;4995576;28;45436;-59
2022/12/06 05:32:57;;;;;;;;;50.50;41.00;;;;;5.83;69.53;101245.34;4967035;28;45904;-58
2022/12/06 05:35:22;;;;;;;;;50.50;42.25;;;;;5.84;69.66;101233.16;4992661;28;48215;-59
2022/12/06 05:37:47;;;;;;;;;46.25;38.00;;;;;5.84;69.44;101231.41;4992189;28;45465;-59
2022/12/06 05:40:13;;;;;;;;;44.50;38.25;;;;;5.86;69.44;101234.03;4990994;28;45681;-59
2022/12/06 05:42:39;;;;;;;;;45.25;39.00;;;;;5.86;69.69;101231.41;4995376;28;45842;-59
2022/12/06 05:45:05;;;;;;;;;42.25;38.25;;;;;5.85;69.43;101227.91;4995344;28;45559;-59
2022/12/06 05:47:31;;;;;;;;;51.50;41.75;;;;;5.87;69.90;101228.78;4995265;28;45455;-59
2022/12/06 05:49:56;;;;;;;;;46.50;40.00;;;;;5.88;69.26;101225.28;4995376;28;45427;-59
2022/12/06 05:52:21;;;;;;;;;40.50;36.25;;;;;5.88;69.33;101222.66;4994847;28;45449;-58
2022/12/06 05:54:47;;;;;;;;;34.25;31.75;;;;;5.90;69.54;101222.69;4993520;28;45629;-59
2022/12/06 05:57:12;;;;;;;;;42.50;36.75;;;;;5.90;69.48;101220.94;4995405;28;45562;-59
2022/12/06 05:59:37;;;;;;;;;41.25;34.00;;;;;5.90;69.12;101227.91;4995160;28;45584;-59
2022/12/06 06:02:02;;;;;;;;;33.25;31.75;;;;;5.86;69.64;101216.63;4993547;28;46219;-59
2022/12/06 06:04:28;;;;;;;;;46.50;37.25;;;;;5.89;69.92;101227.03;4995161;28;45418;-59
2022/12/06 06:06:53;;;;;;;;;42.50;37.75;;;;;5.91;69.37;101225.28;4995147;28;45406;-59
2022/12/06 06:09:18;;;;;;;;;52.75;40.50;;;;;5.91;69.76;101224.41;4993713;28;45545;-59
2022/12/06 06:11:44;;;;;;;;;42.00;38.00;;;;;5.91;69.40;101225.28;4984686;28;45472;-59
2022/12/06 06:14:09;;;;;;;;;55.25;43.50;;;;;5.89;69.56;101227.03;4983728;28;45512;-58
2022/12/06 06:16:34;;;;;;;;;41.75;37.50;;;;;5.89;69.60;101237.47;4991826;28;50989;-58
2022/12/06 06:19:03;;;;;;;;;48.50;40.75;;;;;5.90;69.81;101227.91;4988905;28;45709;-58
2022/12/06 06:21:28;;;;;;;;;37.50;31.00;;;;;5.92;69.86;101240.06;4994412;28;45800;-58
2022/12/06 06:23:57;;;;;;;;;49.25;39.75;;;;;5.92;69.77;101239.19;4994366;28;55149;-58
2022/12/06 06:26:22;;;;;;;;;41.00;39.00;;;;;5.91;69.67;101238.34;4994785;28;45428;-58
2022/12/06 06:28:47;;;;;;;;;44.50;38.50;;;;;5.92;69.46;101241.81;4993697;28;45629;-59
2022/12/06 06:31:13;;;;;;;;;50.75;39.50;;;;;5.93;69.59;101241.81;4988251;28;45334;-59
2022/12/06 06:33:38;;;;;;;;;39.00;37.00;;;;;5.96;69.83;101241.84;4991543;28;45456;-58
2022/12/06 06:36:04;;;;;;;;;43.50;39.00;;;;;5.97;69.59;101238.34;4994329;28;45539;-59
2022/12/06 06:38:30;;;;;;;;;48.50;37.75;;;;;5.98;69.71;101236.56;4990460;28;45647;-59
2022/12/06 06:40:55;;;;;;;;;42.25;37.50;;;;;5.97;69.69;101235.72;5005922;28;45500;-58
2022/12/06 06:43:20;;;;;;;;;49.00;40.25;;;;;5.98;69.63;101232.22;4994513;28;45507;-59
2022/12/06 06:45:57;;;;;;;;;44.75;37.00;;;;;6.00;69.61;101245.28;4994673;28;45549;-58
2022/12/06 06:48:25;;;;;;;;;44.25;37.00;;;;;6.01;69.79;101246.13;4994566;28;45545;-58
2022/12/06 06:50:51;;;;;;;;;51.00;36.50;;;;;6.02;69.90;101247.88;4994241;28;45538;-59
2022/12/06 06:53:16;;;;;;;;;45.25;39.25;;;;;6.03;69.60;101257.44;4985107;28;45556;-58
2022/12/06 06:55:42;;;;;;;;;50.00;39.50;;;;;6.04;69.81;101251.34;4991959;28;45417;-58
2022/12/06 06:58:08;;;;;;;;;40.75;34.75;;;;;6.04;69.88;101256.56;4994436;28;45502;-58
2022/12/06 07:00:34;;;;;;;;;41.25;36.75;;;;;6.03;69.80;101258.31;4994290;28;46129;-59
2022/12/06 07:03:00;;;;;;;;;46.75;40.50;;;;;6.05;69.54;101256.56;4994428;28;45454;-58
2022/12/06 07:05:26;;;;;;;;;50.00;40.75;;;;;6.06;69.82;101254.81;4989374;28;45428;-59
2022/12/06 07:07:51;;;;;;;;;54.25;42.75;;;;;6.03;69.91;101245.25;4990870;28;45472;-57
2022/12/06 07:10:16;;;;;;;;;48.00;39.75;;;;;6.06;69.93;101244.38;4993283;28;45575;-58
2022/12/06 07:12:42;;;;;;;;;39.75;36.75;;;;;6.07;69.88;101248.69;4993108;28;45502;-59
2022/12/06 07:15:07;;;;;;;;;39.25;36.75;;;;;6.09;70.04;101253.03;4993336;28;47338;-57
2022/12/06 07:17:34;;;;;;;;;43.50;37.50;;;;;6.07;69.69;101249.59;4993361;28;45557;-59
2022/12/06 07:19:59;;;;;;;;;46.25;40.75;;;;;6.06;70.45;101250.44;4993404;28;47225;-57
2022/12/06 07:22:24;;;;;;;;;46.50;37.75;;;;;6.06;70.02;101244.38;4984106;28;45564;-59
2022/12/06 07:24:49;;;;;;;;;41.75;36.50;;;;;6.07;69.49;101243.47;4991728;28;45516;-57
2022/12/06 07:27:15;;;;;;;;;41.25;36.75;;;;;6.08;70.04;101245.22;4987347;28;46708;-59
2022/12/06 07:29:40;;;;;;;;;46.50;38.75;;;;;6.09;70.07;101237.38;4990149;28;46279;-59
2022/12/06 07:32:05;;;;;;;;;57.25;43.50;;;;;6.10;69.96;101238.22;4969904;28;45590;-62
2022/12/06 07:34:32;;;;;;;;;51.75;39.75;;;;;6.11;70.25;101247.81;4968866;28;45526;-63
2022/12/06 07:36:57;;;;;;;;;37.75;33.50;;;;;6.06;69.84;101234.78;4993638;28;45638;-64
2022/12/06 07:39:23;;;;;;;;;51.75;43.00;;;;;6.10;69.94;101252.19;4993042;28;46300;-63
2022/12/06 07:47:15;;;;;;;;;38.75;35.50;;;;;6.05;70.58;101247.88;4995253;28;45493;-63
2022/12/06 07:49:41;;;;;;;;;45.50;37.00;;;;;6.01;70.00;101233.94;4996202;28;45509;-63
2022/12/06 07:52:06;;;;;;;;;45.25;36.75;;;;;6.04;70.42;101243.50;4995977;28;45603;-63
2022/12/06 07:54:31;;;;;;;;;39.25;36.25;;;;;6.03;70.28;101244.41;4996468;28;45580;-63
2022/12/06 07:56:57;;;;;;;;;45.25;39.00;;;;;6.04;70.29;101254.81;4996234;28;45560;-63
2022/12/06 07:59:23;;;;;;;;;45.50;37.75;;;;;6.04;70.73;101248.72;4995885;28;45876;-63
2022/12/06 08:01:49;;;;;;;;;37.50;35.75;;;;;6.05;70.61;101247.88;4996037;28;45477;-64
2022/12/06 08:04:15;;;;;;;;;43.25;35.25;;;;;6.06;70.33;101250.44;4995938;28;45517;-63
2022/12/06 08:06:40;;;;;;;;;42.75;38.25;;;;;6.07;71.16;101244.38;4996058;28;45460;-63
2022/12/06 08:09:06;;;;;;;;;42.00;37.25;;;;;6.09;70.58;101252.19;4995447;28;55675;-63
2022/12/06 08:11:32;;;;;;;;;44.00;36.75;;;;;6.10;70.73;101253.91;4996089;28;45461;-63
2022/12/06 08:13:57;;;;;;;;;55.25;43.00;;;;;6.09;70.33;101260.00;4996015;28;45472;-63
2022/12/06 08:16:23;;;;;;;;;47.50;40.00;;;;;6.11;70.30;101268.72;4995810;28;45811;-63
2022/12/06 08:18:48;;;;;;;;;46.50;39.00;;;;;6.09;70.71;101260.88;4996276;28;48316;-62
2022/12/06 08:21:15;;;;;;;;;41.50;35.50;;;;;6.10;70.83;101264.34;4977724;28;45715;-64
2022/12/06 08:23:40;;;;;;;;;41.50;37.50;;;;;6.07;71.01;101265.25;4995822;28;45483;-62
2022/12/06 08:26:08;;;;;;;;;48.00;40.25;;;;;6.10;70.84;101274.78;4995611;28;45493;-63
2022/12/06 08:28:36;;;;;;;;;47.75;39.25;;;;;6.09;70.72;101283.50;4995670;28;45512;-62
2022/12/06 08:31:07;;;;;;;;;54.75;42.75;;;;;6.01;71.12;101280.94;4977609;28;45667;-63
2022/12/06 08:33:33;;;;;;;;;43.25;38.50;;;;;6.02;70.87;101282.69;4995538;28;45520;-63
2022/12/06 08:35:58;;;;;;;;;35.25;33.00;;;;;6.03;71.05;101286.16;4994785;28;45624;-63
2022/12/06 08:38:24;;;;;;;;;55.00;43.25;;;;;6.03;71.23;101287.03;4995243;28;53701;-63
2022/12/06 08:40:49;;;;;;;;;45.00;41.00;;;;;6.02;71.45;101287.91;4995271;28;45531;-63
2022/12/06 08:43:14;;;;;;;;;48.75;40.25;;;;;6.02;71.93;101289.63;4995731;28;45709;-63
2022/12/06 08:45:40;;;;;;;;;56.25;45.00;;;;;5.99;72.00;101293.13;4995500;28;45484;-64
2022/12/06 08:48:05;;;;;;;;;54.50;40.25;;;;;6.00;71.75;101302.72;4995575;28;45689;-63
2022/12/06 08:50:30;;;;;;;;;33.25;30.00;;;;;6.03;71.05;101309.66;4995555;28;45457;-64
2022/12/06 08:52:56;;;;;;;;;53.50;45.25;;;;;6.01;72.24;101311.41;4995353;28;45498;-63
2022/12/06 08:55:21;;;;;;;;;58.25;45.25;;;;;6.00;72.10;101310.56;4995080;28;47887;-63
2022/12/06 08:57:46;;;;;;;;;54.00;44.00;;;;;6.00;72.03;101314.91;4994581;28;45492;-63
2022/12/06 09:00:12;;;;;;;;;43.75;39.50;;;;;5.98;72.84;101313.16;4995028;28;45424;-63
2022/12/06 09:02:39;;;;;;;;;51.00;43.00;;;;;5.95;72.64;101310.56;4995222;28;45529;-63
2022/12/06 09:05:04;;;;;;;;;60.00;48.00;;;;;5.97;72.92;101307.97;4995393;28;45475;-63
2022/12/06 09:07:30;;;;;;;;;48.00;42.25;;;;;5.99;72.67;101308.78;4994758;28;46096;-63
2022/12/06 09:09:55;;;;;;;;;55.50;44.75;;;;;6.00;72.86;101317.53;4995190;28;45455;-64
2022/12/06 09:12:21;;;;;;;;;56.00;44.00;;;;;6.00;73.35;101312.31;4994943;28;45502;-65
2022/12/06 09:14:46;;;;;;;;;56.00;43.50;;;;;6.01;73.00;101319.25;4995037;28;45501;-63
2022/12/06 09:17:11;;;;;;;;;51.75;43.75;;;;;5.98;73.07;101323.59;4994957;28;46311;-65
2022/12/06 09:19:37;;;;;;;;;57.75;43.00;;;;;5.98;73.04;101322.75;4995500;28;45430;-63
2022/12/06 09:22:02;;;;;;;;;52.75;43.00;;;;;5.99;72.95;101327.06;4977203;28;45505;-63
2022/12/06 09:24:28;;;;;;;;;58.00;43.50;;;;;5.92;73.67;101313.16;4994969;28;45603;-64
2022/12/06 09:26:53;;;;;;;;;61.00;45.50;;;;;5.95;73.50;101325.38;4977378;28;45501;-64
2022/12/06 09:29:18;;;;;;;;;56.75;44.75;;;;;5.91;74.16;101327.09;4994787;28;45492;-64
2022/12/06 09:31:44;;;;;;;;;52.50;43.50;;;;;5.90;73.75;101327.97;4994767;28;45457;-63
2022/12/06 09:34:11;;;;;;;;;55.50;46.75;;;;;5.92;74.00;101327.97;4994747;28;45591;-64
2022/12/06 09:36:45;;;;;;;;;52.25;40.75;;;;;5.92;73.47;101321.00;4994558;28;45495;-64
2022/12/06 09:39:32;;;;;;;;;54.00;43.50;;;;;5.88;73.92;101327.09;4994804;28;45538;-64
2022/12/06 09:42:03;;;;;;;;;52.75;43.00;;;;;5.88;74.01;101324.47;4994645;28;45604;-63
2022/12/06 09:44:43;;;;;;;;;51.00;43.25;;;;;5.87;74.68;101324.50;4994390;28;45448;-64
2022/12/06 09:47:21;;;;;;;;;54.50;40.75;;;;;5.88;74.85;101321.88;4976568;28;45353;-64
2022/12/06 09:50:09;;;;;;;;;51.00;40.25;;;;;5.88;74.78;101332.31;4994198;28;45553;-64
2022/12/06 09:53:04;;;;;;;;;45.75;38.50;;;;;5.92;74.66;101333.19;4984555;28;45424;-63
2022/12/06 09:55:35;;;;;;;;;48.00;39.50;;;;;5.90;74.73;101334.94;4974769;28;45516;-64
2022/12/06 09:58:27;;;;;;;;;43.75;37.00;;;;;5.88;74.46;101324.47;4994286;28;46684;-63
2022/12/06 10:01:14;;;;;;;;;44.75;39.75;;;;;5.91;74.79;101326.22;4994283;28;45401;-64
2022/12/06 10:04:20;;;;;;;;;47.25;40.00;;;;;5.89;75.26;101331.47;4994339;28;45586;-64
2022/12/06 10:06:52;;;;;;;;;44.50;38.25;;;;;5.88;75.16;101331.44;4994276;28;45533;-64
2022/12/06 10:09:24;;;;;;;;;43.00;38.25;;;;;5.86;75.16;101341.91;4992777;28;46099;-63
2022/12/06 10:11:56;;;;;;;;;39.75;37.25;;;;;5.87;75.03;101334.94;4994302;28;45432;-64
2022/12/06 10:14:34;;;;;;;;;52.00;39.75;;;;;5.89;74.96;101327.97;4994085;28;45459;-63
2022/12/06 10:17:17;;;;;;;;;47.00;40.75;;;;;5.86;75.13;101334.09;4994241;28;45512;-63
2022/12/06 10:20:06;;;;;;;;;48.25;41.00;;;;;5.88;75.36;101334.06;4994651;28;46402;-63
2022/12/06 10:22:40;;;;;;;;;54.50;42.75;;;;;5.85;75.14;101329.72;4993957;28;45531;-64
2022/12/06 10:25:26;;;;;;;;;49.00;42.00;;;;;5.84;74.60;101322.78;4993905;28;45499;-64
2022/12/06 10:28:06;;;;;;;;;48.00;41.50;;;;;5.85;75.19;101328.84;4963242;28;45373;-62
2022/12/06 10:30:35;;;;;;;;;46.75;39.25;;;;;5.85;74.90;101332.31;4993851;28;46227;-63
2022/12/06 10:33:12;;;;;;;;;48.75;40.25;;;;;5.84;75.29;101330.59;4993888;28;45763;-63
2022/12/06 10:35:48;;;;;;;;;54.00;38.00;;;;;5.85;75.03;101332.31;4993757;28;45443;-63
2022/12/06 10:38:22;;;;;;;;;55.25;43.75;;;;;5.84;75.31;101330.59;4993817;28;45556;-63
2022/12/06 10:40:52;;;;;;;;;52.25;43.00;;;;;5.84;74.93;101337.56;4980915;28;45996;-63
2022/12/06 10:43:45;;;;;;;;;51.50;43.00;;;;;5.86;75.12;101336.69;4993979;28;45579;-62
2022/12/06 10:49:31;;;;;;;;;45.25;39.50;;;;;5.89;75.53;101327.97;4993647;28;45437;-64
2022/12/06 10:52:07;;;;;;;;;47.00;38.75;;;;;5.89;75.25;101328.84;4993444;28;46158;-63
2022/12/06 10:54:39;;;;;;;;;44.00;39.75;;;;;5.92;75.09;101335.81;4993634;28;45504;-63
2022/12/06 10:57:10;;;;;;;;;56.50;41.00;;;;;5.91;75.01;101332.31;4993546;28;45552;-64
2022/12/06 10:59:43;;;;;;;;;41.25;38.50;;;;;5.91;75.13;101329.72;4993629;28;45382;-64
2022/12/06 11:02:41;;;;;;;;;49.00;39.25;;;;;5.90;74.80;101330.56;4993162;28;46128;-64
2022/12/06 11:05:19;;;;;;;;;47.25;38.50;;;;;5.91;75.04;101326.22;4993486;28;45551;-64
2022/12/06 11:07:49;;;;;;;;;45.50;39.25;;;;;5.92;75.32;101334.06;4993348;28;45518;-64
2022/12/06 11:10:34;;;;;;;;;47.25;38.00;;;;;5.90;75.06;101321.88;4993168;28;45642;-63
2022/12/06 11:13:29;;;;;;;;;48.75;40.00;;;;;5.90;75.26;101322.75;4993082;28;46450;-64
2022/12/06 11:15:59;;;;;;;;;46.25;41.25;;;;;5.91;75.47;101332.31;4975504;28;45452;-64
2022/12/06 11:18:30;;;;;;;;;40.00;38.50;;;;;5.90;75.38;101314.91;4993466;28;45566;-64
2022/12/06 11:21:21;;;;;;;;;41.75;37.50;;;;;5.88;75.38;101316.66;4994764;28;45484;-64
2022/12/06 11:23:55;;;;;;;;;43.00;36.50;;;;;5.87;75.01;101317.53;4996552;28;45507;-64
2022/12/06 11:27:04;;;;;;;;;44.00;37.75;;;;;5.89;75.67;101313.19;4996400;28;45579;-64
2022/12/06 11:29:30;;;;;;;;;43.75;39.00;;;;;5.93;75.32;101314.03;4996313;28;45458;-64
2022/12/06 11:32:08;;;;;;;;;48.00;39.50;;;;;5.95;75.29;101307.09;4996343;28;45453;-63
2022/12/06 11:34:42;;;;;;;;;44.00;37.75;;;;;5.92;75.55;101304.47;4996465;28;46594;-63
2022/12/06 11:37:14;;;;;;;;;47.00;39.00;;;;;5.95;75.70;101305.34;4996360;28;45548;-64
2022/12/06 11:39:39;;;;;;;;;40.75;37.25;;;;;5.96;75.11;101304.50;4996566;28;45473;-64
2022/12/06 11:42:07;;;;;;;;;44.25;37.25;;;;;5.95;75.78;101287.06;4996055;28;45612;-63
2022/12/06 11:44:40;;;;;;;;;48.00;39.00;;;;;6.01;76.05;101291.38;4978261;28;46175;-63
2022/12/06 11:47:06;;;;;;;;;42.25;34.00;;;;;6.02;76.10;101290.53;4996261;28;45449;-63
2022/12/06 11:49:37;;;;;;;;;45.75;39.25;;;;;5.99;76.47;101287.91;4996315;28;45426;-63
2022/12/06 11:52:07;;;;;;;;;51.00;42.75;;;;;6.03;75.82;101284.41;4996047;28;45601;-63
2022/12/06 11:54:40;;;;;;;;;54.00;42.75;;;;;6.04;76.22;101274.84;4996175;28;45461;-64
2022/12/06 11:57:16;;;;;;;;;54.75;44.00;;;;;6.05;76.37;101273.97;4996008;28;45483;-64